sensor_id;sensor_type;location;lat;lon;timestamp;pressure;altitude;pressure_sealevel;temperature;humidity
43312;BME280;30041;48.300;16.352;2023-10-08T00:00:25;99916.47;;;21.30;48.85
43312;BME280;30041;48.300;16.352;2023-10-08T00:02:50;99901.94;;;21.31;48.81
43312;BME280;30041;48.300;16.352;2023-10-08T00:05:15;99899.25;;;21.31;48.88
43312;BME280;30041;48.300;16.352;2023-10-08T00:07:41;99913.53;;;21.31;49.03
43312;BME280;30041;48.300;16.352;2023-10-08T00:10:07;99892.19;;;21.30;48.93
43312;BME280;30041;48.300;16.352;2023-10-08T00:12:32;99891.38;;;21.29;48.88
43312;BME280;30041;48.300;16.352;2023-10-08T00:14:57;99886.25;;;21.28;48.82
43312;BME280;30041;48.300;16.352;2023-10-08T00:17:23;99904.03;;;21.29;48.82
43312;BME280;30041;48.300;16.352;2023-10-08T00:19:48;99910.50;;;21.28;48.88
43312;BME280;30041;48.300;16.352;2023-10-08T00:22:13;99898.44;;;21.30;49.13
43312;BME280;30041;48.300;16.352;2023-10-08T00:24:40;99876.28;;;21.28;49.03
43312;BME280;30041;48.300;16.352;2023-10-08T00:27:06;99870.41;;;21.31;48.80
43312;BME280;30041;48.300;16.352;2023-10-08T00:29:31;99855.53;;;21.29;49.03
43312;BME280;30041;48.300;16.352;2023-10-08T00:31:56;99853.66;;;21.29;48.82
43312;BME280;30041;48.300;16.352;2023-10-08T00:34:22;99855.31;;;21.30;48.86
43312;BME280;30041;48.300;16.352;2023-10-08T00:36:48;99868.78;;;21.30;48.73
43312;BME280;30041;48.300;16.352;2023-10-08T00:39:14;99869.81;;;21.29;49.14
43312;BME280;30041;48.300;16.352;2023-10-08T00:41:44;99866.31;;;21.29;48.88
43312;BME280;30041;48.300;16.352;2023-10-08T00:44:13;99868.78;;;21.30;48.93
43312;BME280;30041;48.300;16.352;2023-10-08T00:46:39;99874.41;;;21.29;48.94
43312;BME280;30041;48.300;16.352;2023-10-08T00:49:04;99879.31;;;21.32;49.01
43312;BME280;30041;48.300;16.352;2023-10-08T00:51:30;99876.63;;;21.32;48.87
43312;BME280;30041;48.300;16.352;2023-10-08T00:54:04;99888.69;;;21.29;49.00
43312;BME280;30041;48.300;16.352;2023-10-08T00:56:29;99890.78;;;21.27;48.92
43312;BME280;30041;48.300;16.352;2023-10-08T00:58:55;99902.16;;;21.29;48.85
43312;BME280;30041;48.300;16.352;2023-10-08T01:01:20;99895.75;;;21.30;48.81
43312;BME280;30041;48.300;16.352;2023-10-08T01:03:46;99895.97;;;21.29;48.84
43312;BME280;30041;48.300;16.352;2023-10-08T01:06:12;99890.34;;;21.30;48.93
43312;BME280;30041;48.300;16.352;2023-10-08T01:08:37;99890.34;;;21.30;48.88
43312;BME280;30041;48.300;16.352;2023-10-08T01:11:22;99886.25;;;21.28;48.87
43312;BME280;30041;48.300;16.352;2023-10-08T01:13:48;99888.69;;;21.29;48.87
43312;BME280;30041;48.300;16.352;2023-10-08T01:16:13;99882.00;;;21.32;48.90
43312;BME280;30041;48.300;16.352;2023-10-08T01:18:38;99875.22;;;21.29;48.93
43312;BME280;30041;48.300;16.352;2023-10-08T01:21:04;99874.19;;;21.30;48.95
43312;BME280;30041;48.300;16.352;2023-10-08T01:23:29;99874.19;;;21.30;48.79
43312;BME280;30041;48.300;16.352;2023-10-08T01:25:54;99869.00;;;21.29;48.92
43312;BME280;30041;48.300;16.352;2023-10-08T01:28:20;99849.06;;;21.30;48.73
43312;BME280;30041;48.300;16.352;2023-10-08T01:30:45;99853.66;;;21.29;48.96
43312;BME280;30041;48.300;16.352;2023-10-08T01:33:10;99863.41;;;21.30;48.88
43312;BME280;30041;48.300;16.352;2023-10-08T01:35:36;99868.78;;;21.30;48.79
43312;BME280;30041;48.300;16.352;2023-10-08T01:38:01;99865.25;;;21.30;48.98
43312;BME280;30041;48.300;16.352;2023-10-08T01:40:26;99858.00;;;21.30;49.00
43312;BME280;30041;48.300;16.352;2023-10-08T01:42:52;99856.34;;;21.29;48.98
43312;BME280;30041;48.300;16.352;2023-10-08T01:45:17;99856.34;;;21.29;48.88
43312;BME280;30041;48.300;16.352;2023-10-08T01:47:43;99852.59;;;21.30;48.92
43312;BME280;30041;48.300;16.352;2023-10-08T01:50:09;99848.84;;;21.31;48.98
43312;BME280;30041;48.300;16.352;2023-10-08T01:52:34;99848.03;;;21.31;48.78
43312;BME280;30041;48.300;16.352;2023-10-08T01:54:59;99854.00;;;21.33;49.11
43312;BME280;30041;48.300;16.352;2023-10-08T01:57:25;99851.53;;;21.31;48.94
43312;BME280;30041;48.300;16.352;2023-10-08T01:59:50;99848.84;;;21.31;49.07
43312;BME280;30041;48.300;16.352;2023-10-08T02:02:15;99848.84;;;21.31;48.86
43312;BME280;30041;48.300;16.352;2023-10-08T02:04:41;99844.53;;;21.30;49.02
43312;BME280;30041;48.300;16.352;2023-10-08T02:07:07;99851.53;;;21.31;48.98
43312;BME280;30041;48.300;16.352;2023-10-08T02:09:32;99836.19;;;21.32;48.97
43312;BME280;30041;48.300;16.352;2023-10-08T02:11:58;99835.16;;;21.33;48.98
43312;BME280;30041;48.300;16.352;2023-10-08T02:14:23;99842.88;;;21.29;48.80
43312;BME280;30041;48.300;16.352;2023-10-08T02:16:49;99835.38;;;21.31;48.94
43312;BME280;30041;48.300;16.352;2023-10-08T02:19:15;99837.03;;;21.32;48.75
43312;BME280;30041;48.300;16.352;2023-10-08T02:21:40;99835.38;;;21.31;48.75
43312;BME280;30041;48.300;16.352;2023-10-08T02:24:06;99838.66;;;21.33;48.85
43312;BME280;30041;48.300;16.352;2023-10-08T02:26:32;99840.75;;;21.31;48.86
43312;BME280;30041;48.300;16.352;2023-10-08T02:28:57;99832.44;;;21.33;49.00
43312;BME280;30041;48.300;16.352;2023-10-08T02:31:23;99847.81;;;21.32;48.96
43312;BME280;30041;48.300;16.352;2023-10-08T02:33:48;99837.03;;;21.32;48.93
43312;BME280;30041;48.300;16.352;2023-10-08T02:36:13;99831.03;;;21.30;49.15
43312;BME280;30041;48.300;16.352;2023-10-08T02:38:39;99838.06;;;21.31;48.91
43312;BME280;30041;48.300;16.352;2023-10-08T02:41:04;99834.34;;;21.32;48.82
43312;BME280;30041;48.300;16.352;2023-10-08T02:43:30;99829.97;;;21.31;48.97
43312;BME280;30041;48.300;16.352;2023-10-08T02:45:55;99815.47;;;21.32;48.79
43312;BME280;30041;48.300;16.352;2023-10-08T02:48:20;99823.53;;;21.32;48.90
43312;BME280;30041;48.300;16.352;2023-10-08T02:50:46;99821.66;;;21.33;49.06
43312;BME280;30041;48.300;16.352;2023-10-08T02:53:11;99812.75;;;21.32;48.97
43312;BME280;30041;48.300;16.352;2023-10-08T02:55:38;99818.16;;;21.32;48.84
43312;BME280;30041;48.300;16.352;2023-10-08T02:58:03;99815.22;;;21.34;48.75
43312;BME280;30041;48.300;16.352;2023-10-08T03:00:29;99823.28;;;21.34;48.75
43312;BME280;30041;48.300;16.352;2023-10-08T03:02:57;99820.59;;;21.34;48.90
43312;BME280;30041;48.300;16.352;2023-10-08T03:05:22;99818.16;;;21.32;48.87
43312;BME280;30041;48.300;16.352;2023-10-08T03:07:47;99813.59;;;21.33;48.91
43312;BME280;30041;48.300;16.352;2023-10-08T03:10:13;99809.00;;;21.33;48.93
43312;BME280;30041;48.300;16.352;2023-10-08T03:12:38;99809.00;;;21.33;48.92
43312;BME280;30041;48.300;16.352;2023-10-08T03:15:05;99817.91;;;21.34;48.88
43312;BME280;30041;48.300;16.352;2023-10-08T03:17:31;99819.78;;;21.33;48.83
43312;BME280;30041;48.300;16.352;2023-10-08T03:19:56;99812.75;;;21.32;49.00
43312;BME280;30041;48.300;16.352;2023-10-08T03:22:21;99817.09;;;21.33;48.99
43312;BME280;30041;48.300;16.352;2023-10-08T03:24:47;99814.63;;;21.32;48.85
43312;BME280;30041;48.300;16.352;2023-10-08T03:27:15;99819.78;;;21.33;48.97
43312;BME280;30041;48.300;16.352;2023-10-08T03:29:41;99824.69;;;21.36;48.69
43312;BME280;30041;48.300;16.352;2023-10-08T03:32:09;99809.81;;;21.34;49.17
43312;BME280;30041;48.300;16.352;2023-10-08T03:34:35;99813.59;;;21.33;48.78
43312;BME280;30041;48.300;16.352;2023-10-08T03:37:00;99820.38;;;21.35;48.96
43312;BME280;30041;48.300;16.352;2023-10-08T03:39:26;99821.44;;;21.34;48.91
43312;BME280;30041;48.300;16.352;2023-10-08T03:41:51;99812.28;;;21.35;48.87
43312;BME280;30041;48.300;16.352;2023-10-08T03:44:17;99815.22;;;21.34;48.81
43312;BME280;30041;48.300;16.352;2023-10-08T03:46:43;99826.84;;;21.34;48.79
43312;BME280;30041;48.300;16.352;2023-10-08T03:49:12;99824.13;;;21.34;48.96
43312;BME280;30041;48.300;16.352;2023-10-08T03:51:37;99819.78;;;21.33;48.78
43312;BME280;30041;48.300;16.352;2023-10-08T03:54:02;99835.97;;;21.33;48.97
43312;BME280;30041;48.300;16.352;2023-10-08T03:56:28;99819.56;;;21.35;48.71
43312;BME280;30041;48.300;16.352;2023-10-08T03:58:53;99830.56;;;21.33;49.05
43312;BME280;30041;48.300;16.352;2023-10-08T04:01:20;99835.97;;;21.33;48.93
43312;BME280;30041;48.300;16.352;2023-10-08T04:03:45;99830.56;;;21.33;48.91
43312;BME280;30041;48.300;16.352;2023-10-08T04:06:11;99835.16;;;21.33;48.93
43312;BME280;30041;48.300;16.352;2023-10-08T04:08:36;99831.38;;;21.34;48.71
43312;BME280;30041;48.300;16.352;2023-10-08T04:11:01;99825.19;;;21.33;48.89
43312;BME280;30041;48.300;16.352;2023-10-08T04:13:27;99830.56;;;21.33;48.86
43312;BME280;30041;48.300;16.352;2023-10-08T04:15:52;99815.22;;;21.34;48.96
43312;BME280;30041;48.300;16.352;2023-10-08T04:18:17;99810.66;;;21.34;49.08
43312;BME280;30041;48.300;16.352;2023-10-08T04:20:45;99809.81;;;21.34;48.95
43312;BME280;30041;48.300;16.352;2023-10-08T04:23:10;99805.28;;;21.34;48.77
43312;BME280;30041;48.300;16.352;2023-10-08T04:25:36;99799.88;;;21.34;48.95
43312;BME280;30041;48.300;16.352;2023-10-08T04:28:01;99814.41;;;21.33;48.93
43312;BME280;30041;48.300;16.352;2023-10-08T04:30:33;99823.06;;;21.35;48.81
43312;BME280;30041;48.300;16.352;2023-10-08T04:33:04;99812.50;;;21.34;48.97
43312;BME280;30041;48.300;16.352;2023-10-08T04:35:30;99807.13;;;21.34;48.90
43312;BME280;30041;48.300;16.352;2023-10-08T04:37:55;99801.03;;;21.39;48.81
43312;BME280;30041;48.300;16.352;2023-10-08T04:40:21;99804.78;;;21.38;48.94
43312;BME280;30041;48.300;16.352;2023-10-08T04:42:46;99799.63;;;21.36;48.77
43312;BME280;30041;48.300;16.352;2023-10-08T04:45:14;99802.31;;;21.36;48.89
43312;BME280;30041;48.300;16.352;2023-10-08T04:47:42;99795.03;;;21.36;48.80
43312;BME280;30041;48.300;16.352;2023-10-08T04:50:08;99801.50;;;21.35;48.83
43312;BME280;30041;48.300;16.352;2023-10-08T04:52:34;99804.78;;;21.38;48.79
43312;BME280;30041;48.300;16.352;2023-10-08T04:54:59;99811.22;;;21.36;48.74
43312;BME280;30041;48.300;16.352;2023-10-08T04:57:24;99814.50;;;21.39;48.89
43312;BME280;30041;48.300;16.352;2023-10-08T04:59:50;99812.28;;;21.35;48.96
43312;BME280;30041;48.300;16.352;2023-10-08T05:02:15;99825.53;;;21.37;48.84
43312;BME280;30041;48.300;16.352;2023-10-08T05:04:41;99825.91;;;21.41;48.80
43312;BME280;30041;48.300;16.352;2023-10-08T05:07:06;99837.16;;;21.38;48.72
43312;BME280;30041;48.300;16.352;2023-10-08T05:09:32;99835.97;;;21.33;48.96
43312;BME280;30041;48.300;16.352;2023-10-08T05:11:57;99841.34;;;21.33;49.11
43312;BME280;30041;48.300;16.352;2023-10-08T05:14:23;99846.75;;;21.33;48.96
43312;BME280;30041;48.300;16.352;2023-10-08T05:16:49;99842.16;;;21.34;49.04
43312;BME280;30041;48.300;16.352;2023-10-08T05:19:14;99838.44;;;21.35;48.89
43312;BME280;30041;48.300;16.352;2023-10-08T05:21:40;99854.00;;;21.33;49.06
43312;BME280;30041;48.300;16.352;2023-10-08T05:24:05;99847.56;;;21.34;48.74
43312;BME280;30041;48.300;16.352;2023-10-08T05:26:31;99851.91;;;21.35;49.00
43312;BME280;30041;48.300;16.352;2023-10-08T05:28:56;99846.75;;;21.33;49.17
43312;BME280;30041;48.300;16.352;2023-10-08T05:31:21;99849.22;;;21.35;48.77
43312;BME280;30041;48.300;16.352;2023-10-08T05:33:47;99848.41;;;21.34;48.98
43312;BME280;30041;48.300;16.352;2023-10-08T05:36:12;99855.66;;;21.34;49.02
43312;BME280;30041;48.300;16.352;2023-10-08T05:38:38;99859.19;;;21.34;48.98
43312;BME280;30041;48.300;16.352;2023-10-08T05:41:03;99867.84;;;21.36;49.02
43312;BME280;30041;48.300;16.352;2023-10-08T05:43:34;99870.78;;;21.35;49.05
43312;BME280;30041;48.300;16.352;2023-10-08T05:45:59;99863.72;;;21.34;48.91
43312;BME280;30041;48.300;16.352;2023-10-08T05:48:25;99859.19;;;21.34;48.96
43312;BME280;30041;48.300;16.352;2023-10-08T05:50:50;99858.13;;;21.35;49.06
43312;BME280;30041;48.300;16.352;2023-10-08T05:53:15;99855.44;;;21.35;49.02
43312;BME280;30041;48.300;16.352;2023-10-08T05:55:41;99860.00;;;21.35;48.98
43312;BME280;30041;48.300;16.352;2023-10-08T05:58:06;99848.41;;;21.34;48.88
43312;BME280;30041;48.300;16.352;2023-10-08T06:00:32;99857.53;;;21.33;48.90
43312;BME280;30041;48.300;16.352;2023-10-08T06:02:57;99857.53;;;21.33;48.92
43312;BME280;30041;48.300;16.352;2023-10-08T06:05:23;99868.31;;;21.33;49.16
43312;BME280;30041;48.300;16.352;2023-10-08T06:07:51;99877.47;;;21.32;49.04
43312;BME280;30041;48.300;16.352;2023-10-08T06:10:16;99872.88;;;21.33;48.97
43312;BME280;30041;48.300;16.352;2023-10-08T06:12:42;99874.41;;;21.29;49.16
43312;BME280;30041;48.300;16.352;2023-10-08T06:15:07;99891.97;;;21.31;49.06
43312;BME280;30041;48.300;16.352;2023-10-08T06:17:34;99891.97;;;21.31;49.13
43312;BME280;30041;48.300;16.352;2023-10-08T06:20:01;99895.97;;;21.29;49.09
43312;BME280;30041;48.300;16.352;2023-10-08T06:22:27;99904.66;;;21.31;49.18
43312;BME280;30041;48.300;16.352;2023-10-08T06:24:52;99901.72;;;21.32;49.13
43312;BME280;30041;48.300;16.352;2023-10-08T06:27:17;99901.34;;;21.29;49.26
43312;BME280;30041;48.300;16.352;2023-10-08T06:29:43;99912.72;;;21.31;49.28
43312;BME280;30041;48.300;16.352;2023-10-08T06:32:08;99914.34;;;21.32;49.07
43312;BME280;30041;48.300;16.352;2023-10-08T06:34:33;99900.88;;;21.32;49.25
43312;BME280;30041;48.300;16.352;2023-10-08T06:36:59;99908.16;;;21.31;49.25
43312;BME280;30041;48.300;16.352;2023-10-08T06:39:25;99910.03;;;21.31;49.13
43312;BME280;30041;48.300;16.352;2023-10-08T06:41:53;99921.84;;;21.30;48.99
43312;BME280;30041;48.300;16.352;2023-10-08T06:44:18;99923.50;;;21.31;49.20
43312;BME280;30041;48.300;16.352;2023-10-08T06:46:43;99928.91;;;21.31;49.16
43312;BME280;30041;48.300;16.352;2023-10-08T06:49:09;99936.19;;;21.30;49.09
43312;BME280;30041;48.300;16.352;2023-10-08T06:51:35;99937.00;;;21.31;49.22
43312;BME280;30041;48.300;16.352;2023-10-08T06:54:01;99940.72;;;21.30;49.14
43312;BME280;30041;48.300;16.352;2023-10-08T06:56:26;99933.47;;;21.30;49.25
43312;BME280;30041;48.300;16.352;2023-10-08T06:58:51;99938.88;;;21.30;49.14
43312;BME280;30041;48.300;16.352;2023-10-08T07:01:17;99937.00;;;21.31;49.27
43312;BME280;30041;48.300;16.352;2023-10-08T07:03:42;99924.56;;;21.30;49.22
43312;BME280;30041;48.300;16.352;2023-10-08T07:06:08;99923.50;;;21.31;49.16
43312;BME280;30041;48.300;16.352;2023-10-08T07:08:33;99927.03;;;21.31;49.18
43312;BME280;30041;48.300;16.352;2023-10-08T07:11:00;99923.28;;;21.32;49.22
43312;BME280;30041;48.300;16.352;2023-10-08T07:13:26;99921.63;;;21.31;49.15
43312;BME280;30041;48.300;16.352;2023-10-08T07:15:52;99926.22;;;21.31;49.16
43312;BME280;30041;48.300;16.352;2023-10-08T07:18:18;99921.84;;;21.30;49.08
43312;BME280;30041;48.300;16.352;2023-10-08T07:20:47;99931.00;;;21.29;49.12
43312;BME280;30041;48.300;16.352;2023-10-08T07:23:12;99929.72;;;21.31;49.11
43312;BME280;30041;48.300;16.352;2023-10-08T07:25:38;99936.19;;;21.30;49.14
43312;BME280;30041;48.300;16.352;2023-10-08T07:28:03;99933.47;;;21.30;49.42
43312;BME280;30041;48.300;16.352;2023-10-08T07:30:29;99940.50;;;21.31;49.22
43312;BME280;30041;48.300;16.352;2023-10-08T07:32:54;99937.81;;;21.31;49.05
43312;BME280;30041;48.300;16.352;2023-10-08T07:35:20;99930.53;;;21.32;49.20
43312;BME280;30041;48.300;16.352;2023-10-08T07:37:45;99932.41;;;21.31;49.07
43312;BME280;30041;48.300;16.352;2023-10-08T07:40:11;99944.25;;;21.30;49.29
43312;BME280;30041;48.300;16.352;2023-10-08T07:42:36;99938.88;;;21.30;49.36
43312;BME280;30041;48.300;16.352;2023-10-08T07:45:02;99948.81;;;21.30;49.43
43312;BME280;30041;48.300;16.352;2023-10-08T07:47:27;99955.06;;;21.30;49.28
43312;BME280;30041;48.300;16.352;2023-10-08T07:49:53;99967.69;;;21.30;49.42
43312;BME280;30041;48.300;16.352;2023-10-08T07:52:18;99964.56;;;21.33;49.22
43312;BME280;30041;48.300;16.352;2023-10-08T07:54:44;99981.75;;;21.32;49.08
43312;BME280;30041;48.300;16.352;2023-10-08T07:57:09;99989.03;;;21.31;49.11
43312;BME280;30041;48.300;16.352;2023-10-08T07:59:38;99971.22;;;21.30;49.29
43312;BME280;30041;48.300;16.352;2023-10-08T08:02:05;99982.81;;;21.31;49.13
43312;BME280;30041;48.300;16.352;2023-10-08T08:04:31;99975.56;;;21.31;49.05
43312;BME280;30041;48.300;16.352;2023-10-08T08:06:56;99985.53;;;21.31;49.22
43312;BME280;30041;48.300;16.352;2023-10-08T08:09:21;99990.69;;;21.32;49.35
43312;BME280;30041;48.300;16.352;2023-10-08T08:11:47;99987.41;;;21.30;49.28
43312;BME280;30041;48.300;16.352;2023-10-08T08:14:16;99987.84;;;21.27;49.39
43312;BME280;30041;48.300;16.352;2023-10-08T08:16:41;99991.13;;;21.29;49.29
43312;BME280;30041;48.300;16.352;2023-10-08T08:19:06;99997.34;;;21.30;49.23
43312;BME280;30041;48.300;16.352;2023-10-08T08:21:32;100006.50;;;21.29;49.29
43312;BME280;30041;48.300;16.352;2023-10-08T08:23:57;99986.56;;;21.30;49.31
43312;BME280;30041;48.300;16.352;2023-10-08T08:26:24;99999.00;;;21.31;49.25
43312;BME280;30041;48.300;16.352;2023-10-08T08:28:49;100009.78;;;21.31;49.33
43312;BME280;30041;48.300;16.352;2023-10-08T08:31:15;100012.47;;;21.31;49.25
43312;BME280;30041;48.300;16.352;2023-10-08T08:33:40;100028.88;;;21.29;49.26
43312;BME280;30041;48.300;16.352;2023-10-08T08:36:06;100011.66;;;21.30;49.11
43312;BME280;30041;48.300;16.352;2023-10-08T08:38:31;100028.88;;;21.29;49.22
43312;BME280;30041;48.300;16.352;2023-10-08T08:41:03;100035.06;;;21.30;49.40
43312;BME280;30041;48.300;16.352;2023-10-08T08:43:29;100042.34;;;21.29;49.20
43312;BME280;30041;48.300;16.352;2023-10-08T08:45:55;100055.41;;;21.32;49.31
43312;BME280;30041;48.300;16.352;2023-10-08T08:48:21;100081.50;;;21.32;49.42
43312;BME280;30041;48.300;16.352;2023-10-08T08:50:48;100102.25;;;21.31;49.34
43312;BME280;30041;48.300;16.352;2023-10-08T08:53:14;100128.41;;;21.31;49.54
43312;BME280;30041;48.300;16.352;2023-10-08T08:55:39;100123.81;;;21.31;49.34
43312;BME280;30041;48.300;16.352;2023-10-08T08:58:05;100126.75;;;21.30;49.44
43312;BME280;30041;48.300;16.352;2023-10-08T09:00:30;100142.09;;;21.29;49.42
43312;BME280;30041;48.300;16.352;2023-10-08T09:02:56;100147.50;;;21.29;49.47
43312;BME280;30041;48.300;16.352;2023-10-08T09:05:22;100160.75;;;21.31;49.36
43312;BME280;30041;48.300;16.352;2023-10-08T09:07:55;100175.50;;;21.28;49.51
43312;BME280;30041;48.300;16.352;2023-10-08T09:10:22;100185.84;;;21.31;49.36
43312;BME280;30041;48.300;16.352;2023-10-08T09:12:48;100188.53;;;21.31;49.43
43312;BME280;30041;48.300;16.352;2023-10-08T09:15:13;100195.00;;;21.30;49.67
43312;BME280;30041;48.300;16.352;2023-10-08T09:17:40;100196.41;;;21.33;49.33
43312;BME280;30041;48.300;16.352;2023-10-08T09:20:06;100222.75;;;21.31;49.43
43312;BME280;30041;48.300;16.352;2023-10-08T09:22:32;100223.59;;;21.31;49.45
43312;BME280;30041;48.300;16.352;2023-10-08T09:24:57;100233.34;;;21.32;49.32
43312;BME280;30041;48.300;16.352;2023-10-08T09:27:26;100237.53;;;21.28;49.29
43312;BME280;30041;48.300;16.352;2023-10-08T09:29:51;100243.72;;;21.29;49.48
43312;BME280;30041;48.300;16.352;2023-10-08T09:32:16;100247.03;;;21.31;49.46
43312;BME280;30041;48.300;16.352;2023-10-08T09:34:42;100250.75;;;21.30;49.31
43312;BME280;30041;48.300;16.352;2023-10-08T09:37:08;100262.38;;;21.30;49.41
43312;BME280;30041;48.300;16.352;2023-10-08T09:39:34;100267.78;;;21.30;49.41
43312;BME280;30041;48.300;16.352;2023-10-08T09:42:01;100273.78;;;21.32;49.29
43312;BME280;30041;48.300;16.352;2023-10-08T09:44:27;100289.34;;;21.30;49.30
43312;BME280;30041;48.300;16.352;2023-10-08T09:49:30;100295.78;;;21.29;49.34
43312;BME280;30041;48.300;16.352;2023-10-08T09:51:55;100311.94;;;21.29;49.31
43312;BME280;30041;48.300;16.352;2023-10-08T09:54:24;100314.28;;;21.26;49.46
43312;BME280;30041;48.300;16.352;2023-10-08T09:56:53;100321.91;;;21.29;49.34
43312;BME280;30041;48.300;16.352;2023-10-08T09:59:20;100326.25;;;21.30;49.21
43312;BME280;30041;48.300;16.352;2023-10-08T10:01:46;100337.88;;;21.30;49.23
43312;BME280;30041;48.300;16.352;2023-10-08T10:04:22;100349.69;;;21.29;49.20
43312;BME280;30041;48.300;16.352;2023-10-08T10:06:48;100342.66;;;21.28;49.25
43312;BME280;30041;48.300;16.352;2023-10-08T10:09:20;100356.13;;;21.28;49.20
43312;BME280;30041;48.300;16.352;2023-10-08T10:11:48;100369.63;;;21.28;49.08
43312;BME280;30041;48.300;16.352;2023-10-08T10:14:14;100373.75;;;21.31;49.14
43312;BME280;30041;48.300;16.352;2023-10-08T10:16:39;100382.28;;;21.28;49.14
43312;BME280;30041;48.300;16.352;2023-10-08T10:19:04;100379.59;;;21.28;49.42
43312;BME280;30041;48.300;16.352;2023-10-08T10:21:32;100392.81;;;21.29;49.17
43312;BME280;30041;48.300;16.352;2023-10-08T10:23:57;100399.28;;;21.28;49.24
43312;BME280;30041;48.300;16.352;2023-10-08T10:26:33;100395.97;;;21.26;49.28
43312;BME280;30041;48.300;16.352;2023-10-08T10:31:41;100408.84;;;21.24;49.27
43312;BME280;30041;48.300;16.352;2023-10-08T10:34:07;100404.66;;;21.28;49.13
43312;BME280;30041;48.300;16.352;2023-10-08T10:36:33;100415.22;;;21.30;49.07
43312;BME280;30041;48.300;16.352;2023-10-08T10:38:59;100421.88;;;21.27;48.80
43312;BME280;30041;48.300;16.352;2023-10-08T10:41:24;100438.06;;;21.27;49.01
43312;BME280;30041;48.300;16.352;2023-10-08T10:43:49;100437.44;;;21.25;48.85
43312;BME280;30041;48.300;16.352;2023-10-08T10:46:15;100449.88;;;21.26;49.00
43312;BME280;30041;48.300;16.352;2023-10-08T10:48:42;100435.78;;;21.24;49.08
43312;BME280;30041;48.300;16.352;2023-10-08T10:51:08;100439.09;;;21.26;49.01
43312;BME280;30041;48.300;16.352;2023-10-08T10:53:39;100426.66;;;21.25;48.87
43312;BME280;30041;48.300;16.352;2023-10-08T10:56:04;100426.66;;;21.25;48.89
43312;BME280;30041;48.300;16.352;2023-10-08T10:58:31;100442.63;;;21.27;48.89
43312;BME280;30041;48.300;16.352;2023-10-08T11:00:56;100451.53;;;21.27;48.88
43312;BME280;30041;48.300;16.352;2023-10-08T11:03:22;100455.28;;;21.26;48.98
43312;BME280;30041;48.300;16.352;2023-10-08T11:05:50;100465.25;;;21.26;48.68
43312;BME280;30041;48.300;16.352;2023-10-08T11:08:18;100467.94;;;21.26;48.84
43312;BME280;30041;48.300;16.352;2023-10-08T11:10:44;100477.88;;;21.25;48.80
43312;BME280;30041;48.300;16.352;2023-10-08T11:13:10;100486.81;;;21.26;48.94
43312;BME280;30041;48.300;16.352;2023-10-08T11:15:36;100491.34;;;21.25;48.91
43312;BME280;30041;48.300;16.352;2023-10-08T11:18:01;100489.50;;;21.26;48.74
43312;BME280;30041;48.300;16.352;2023-10-08T11:20:27;100478.13;;;21.24;48.77
43312;BME280;30041;48.300;16.352;2023-10-08T11:22:53;100475.19;;;21.25;48.95
43312;BME280;30041;48.300;16.352;2023-10-08T11:25:27;100476.69;;;21.21;48.98
43312;BME280;30041;48.300;16.352;2023-10-08T11:27:53;100472.47;;;21.25;49.04
43312;BME280;30041;48.300;16.352;2023-10-08T11:30:19;100486.81;;;21.26;48.93
43312;BME280;30041;48.300;16.352;2023-10-08T11:32:44;100489.72;;;21.24;48.82
43312;BME280;30041;48.300;16.352;2023-10-08T11:35:14;100497.81;;;21.24;48.98
43312;BME280;30041;48.300;16.352;2023-10-08T11:37:45;100501.56;;;21.23;48.86
43312;BME280;30041;48.300;16.352;2023-10-08T11:40:10;100511.28;;;21.24;48.92
43312;BME280;30041;48.300;16.352;2023-10-08T11:42:46;100516.50;;;21.19;49.20
43312;BME280;30041;48.300;16.352;2023-10-08T11:45:11;100511.50;;;21.23;49.17
43312;BME280;30041;48.300;16.352;2023-10-08T11:47:37;100519.81;;;21.21;48.97
43312;BME280;30041;48.300;16.352;2023-10-08T11:50:02;100509.66;;;21.23;49.03
43312;BME280;30041;48.300;16.352;2023-10-08T11:52:28;100512.34;;;21.23;48.90
43312;BME280;30041;48.300;16.352;2023-10-08T11:54:53;100515.03;;;21.23;48.95
43312;BME280;30041;48.300;16.352;2023-10-08T11:57:18;100513.97;;;21.24;49.09
43312;BME280;30041;48.300;16.352;2023-10-08T11:59:44;100512.94;;;21.25;49.04
43312;BME280;30041;48.300;16.352;2023-10-08T12:02:09;100516.88;;;21.23;48.89
43312;BME280;30041;48.300;16.352;2023-10-08T12:04:34;100524.97;;;21.23;49.08
43312;BME280;30041;48.300;16.352;2023-10-08T12:07:00;100526.63;;;21.24;49.04
43312;BME280;30041;48.300;16.352;2023-10-08T12:09:25;100524.75;;;21.24;49.00
43312;BME280;30041;48.300;16.352;2023-10-08T12:11:50;100526.84;;;21.22;49.10
43312;BME280;30041;48.300;16.352;2023-10-08T12:14:16;100532.03;;;21.24;49.02
43312;BME280;30041;48.300;16.352;2023-10-08T12:16:42;100536.59;;;21.23;49.11
43312;BME280;30041;48.300;16.352;2023-10-08T12:19:08;100532.84;;;21.24;49.02
43312;BME280;30041;48.300;16.352;2023-10-08T12:21:33;100541.16;;;21.23;48.93
43312;BME280;30041;48.300;16.352;2023-10-08T12:23:58;100549.03;;;21.24;48.91
43312;BME280;30041;48.300;16.352;2023-10-08T12:26:24;100542.81;;;21.24;49.12
43312;BME280;30041;48.300;16.352;2023-10-08T12:28:50;100548.22;;;21.24;48.94
43312;BME280;30041;48.300;16.352;2023-10-08T12:31:16;100545.50;;;21.24;48.94
43312;BME280;30041;48.300;16.352;2023-10-08T12:33:42;100550.09;;;21.23;49.00
43312;BME280;30041;48.300;16.352;2023-10-08T12:36:08;100550.66;;;21.25;48.98
43312;BME280;30041;48.300;16.352;2023-10-08T12:38:34;100544.69;;;21.23;49.05
43312;BME280;30041;48.300;16.352;2023-10-08T12:40:59;100543.63;;;21.24;49.06
43312;BME280;30041;48.300;16.352;2023-10-08T12:43:25;100548.22;;;21.24;49.21
43312;BME280;30041;48.300;16.352;2023-10-08T12:45:51;100550.09;;;21.23;48.99